Current Weather

Chicago/Rockford Intl

Rockford, Illinois (KRFD)

Report from: Tuesday, June 18, 2024 7:54 AM CDT
Current time: Tuesday, June 18, 2024 8:15 AM CDT

Nearby weather – Weather history – Daily summaries
Weather forecast

Temperature24.4°C (75.9°F)
Dew point20.6°C (69.1°F)
Winds 11 kts (5.7 m/s, 12.7 mph) South (180°)
Visibility10 mi. (16.1 km)
Clouds Ceiling: Overcast 2,000 ft. (610 m)
Altimeter29.97 in.Hg (1015 mB)
Relative humidity79 %
Density altitude1,382 ft. (421 m)
Sea-level pressure101.4 kPa (1014 mB, 29.95 in.Hg)
Remarks Automated weather observing station with precipitation discriminator
Flight conditions Marginal Visual Meteorological Conditions
Raw dataKRFD 181254Z 18011KT 10SM OVC020 24/21 A2997 RMK AO2 SLP143 T02440206
An error has occurred. This application may no longer respond until reloaded. Reload 🗙